Time;durP1;ratioP1;P1;durP2;ratioP2;P2;SDS_P1;SDS_P2;PMS_P1;PMS_P2;Temp;Humidity;BMP_temperature;BMP_pressure;BME280_temperature;BME280_humidity;BME280_pressure;Samples;Min_cycle;Max_cycle;Signal;HPM_P1;HPM_P2
2023/03/17 00:02:31;;;;;;;2.20;1.20;;;24.70;49.30;;;;;;5071493;28;20191;-62
2023/03/17 00:05:01;;;;;;;1.80;1.00;;;24.70;49.20;;;;;;5071648;28;20229;-60
2023/03/17 00:07:32;;;;;;;3.67;0.90;;;24.70;49.20;;;;;;5071499;28;20584;-62
2023/03/17 00:10:03;;;;;;;2.60;1.00;;;24.80;49.30;;;;;;5071818;28;20191;-62
2023/03/17 00:12:34;;;;;;;2.55;0.90;;;24.80;49.30;;;;;;5070770;28;20202;-63
2023/03/17 00:15:05;;;;;;;0.85;0.75;;;24.80;49.30;;;;;;5070727;28;20190;-61
2023/03/17 00:17:37;;;;;;;1.50;1.10;;;24.80;49.20;;;;;;5084277;28;20209;-63
2023/03/17 00:20:12;;;;;;;2.58;1.05;;;24.80;49.30;;;;;;5091820;28;20852;-64
2023/03/17 00:22:43;;;;;;;1.88;1.20;;;24.80;49.30;;;;;;5092268;28;20579;-61
2023/03/17 00:25:22;;;;;;;1.73;0.93;;;24.80;49.20;;;;;;5092161;28;20271;-63
2023/03/17 00:27:53;;;;;;;2.80;1.00;;;24.80;49.20;;;;;;5073062;28;20216;-62
2023/03/17 00:30:25;;;;;;;2.85;1.08;;;24.90;49.20;;;;;;5071599;28;20647;-63
2023/03/17 00:33:00;;;;;;;2.38;1.00;;;24.90;49.10;;;;;;5067223;28;20199;-62
2023/03/17 00:35:32;;;;;;;2.47;1.10;;;24.90;49.00;;;;;;5071312;28;20213;-60
2023/03/17 00:38:02;;;;;;;2.83;1.02;;;24.90;49.10;;;;;;5071395;28;20569;-62
2023/03/17 00:40:33;;;;;;;2.85;1.10;;;24.90;49.00;;;;;;5071536;28;20558;-63
2023/03/17 00:43:04;;;;;;;3.40;1.38;;;24.90;48.90;;;;;;5071454;28;20206;-62
2023/03/17 00:45:35;;;;;;;2.75;1.35;;;24.90;49.00;;;;;;5071505;28;20241;-61
2023/03/17 00:48:15;;;;;;;2.88;1.00;;;24.90;48.90;;;;;;5071020;28;20194;-63
2023/03/17 00:50:46;;;;;;;3.05;1.15;;;24.90;49.00;;;;;;5070979;28;20194;-63
2023/03/17 00:53:18;;;;;;;2.47;1.23;;;25.00;49.00;;;;;;5071589;28;20605;-63
2023/03/17 00:55:50;;;;;;;2.63;1.30;;;25.00;48.90;;;;;;5070754;28;20222;-62
2023/03/17 00:58:27;;;;;;;3.55;1.10;;;25.00;48.90;;;;;;5070934;28;20199;-63
2023/03/17 01:00:59;;;;;;;5.82;1.20;;;25.00;48.90;;;;;;5070654;28;20644;-61
2023/03/17 01:03:32;;;;;;;3.95;1.10;;;25.00;48.90;;;;;;5070595;28;20245;-61
2023/03/17 01:06:04;;;;;;;2.33;1.17;;;25.00;48.90;;;;;;5070717;28;20222;-61
2023/03/17 01:08:35;;;;;;;4.32;1.20;;;25.10;49.00;;;;;;5070979;28;20702;-63
2023/03/17 01:11:08;;;;;;;3.10;1.30;;;25.10;48.90;;;;;;5070366;28;20541;-62
2023/03/17 01:13:44;;;;;;;1.77;1.10;;;25.10;48.90;;;;;;5071216;28;20666;-62
2023/03/17 01:16:18;;;;;;;2.13;1.23;;;25.10;48.90;;;;;;5071141;28;20309;-60
2023/03/17 01:18:50;;;;;;;2.55;1.10;;;25.10;48.90;;;;;;5071283;28;20205;-62
2023/03/17 01:21:21;;;;;;;2.85;1.20;;;25.10;48.90;;;;;;5070845;28;20205;-61
2023/03/17 01:23:52;;;;;;;2.60;1.40;;;25.10;48.90;;;;;;5070513;28;20199;-62
2023/03/17 01:26:23;;;;;;;3.33;1.35;;;25.10;48.90;;;;;;5070925;28;20241;-61
2023/03/17 01:28:53;;;;;;;4.30;1.58;;;25.20;48.90;;;;;;5071500;28;20195;-61
2023/03/17 01:31:25;;;;;;;2.45;1.25;;;25.10;48.90;;;;;;5070108;28;20191;-63
2023/03/17 01:33:57;;;;;;;1.67;1.27;;;25.20;48.90;;;;;;5070759;28;20206;-63
2023/03/17 01:36:29;;;;;;;3.17;1.20;;;25.20;48.90;;;;;;5070426;28;20713;-63
2023/03/17 01:39:02;;;;;;;1.55;1.13;;;25.20;48.90;;;;;;5063883;28;20206;-63
2023/03/17 01:41:38;;;;;;;2.78;1.10;;;25.30;48.90;;;;;;5072495;28;20226;-63
2023/03/17 01:44:15;;;;;;;3.53;1.50;;;25.30;48.90;;;;;;5070544;28;20194;-60
2023/03/17 01:46:46;;;;;;;1.75;1.10;;;25.30;48.90;;;;;;5069069;28;20593;-63
2023/03/17 01:49:24;;;;;;;3.10;1.20;;;25.30;48.90;;;;;;5069966;28;20554;-60
2023/03/17 01:52:00;;;;;;;2.60;1.40;;;25.30;48.80;;;;;;5070295;28;20194;-60
2023/03/17 01:54:35;;;;;;;2.28;1.45;;;25.40;48.90;;;;;;5070250;28;20195;-63
2023/03/17 01:57:11;;;;;;;3.28;1.40;;;25.30;48.70;;;;;;5069002;28;20218;-63
2023/03/17 01:59:47;;;;;;;2.13;1.25;;;25.40;48.80;;;;;;5069128;28;20191;-63
2023/03/17 02:02:21;;;;;;;1.30;1.08;;;25.40;48.80;;;;;;5069521;28;20202;-62
2023/03/17 02:04:54;;;;;;;2.33;1.10;;;25.40;48.80;;;;;;5069528;28;20209;-62
2023/03/17 02:07:27;;;;;;;3.40;1.50;;;25.40;48.70;;;;;;5070619;28;20301;-64
2023/03/17 02:09:59;;;;;;;2.53;1.38;;;25.50;48.80;;;;;;5070455;28;20224;-63
2023/03/17 02:12:31;;;;;;;1.92;1.25;;;25.50;48.80;;;;;;5069830;28;20195;-63
2023/03/17 02:15:02;;;;;;;1.17;1.08;;;25.50;48.70;;;;;;5069823;28;20226;-62
2023/03/17 02:17:32;;;;;;;2.33;0.93;;;25.50;48.80;;;;;;5069907;28;20231;-63
2023/03/17 02:20:29;;;;;;;1.55;1.20;;;25.50;49.40;;;;;;5069811;28;20195;-61
2023/03/17 02:23:03;;;;;;;1.30;1.20;;;25.60;48.80;;;;;;5071848;28;20239;-63
2023/03/17 02:25:34;;;;;;;2.47;1.38;;;25.60;48.70;;;;;;5073490;28;20309;-62
2023/03/17 02:28:10;;;;;;;2.65;1.13;;;25.60;48.70;;;;;;5073817;28;20195;-63
2023/03/17 02:30:41;;;;;;;2.47;1.35;;;25.70;48.80;;;;;;5073437;28;20276;-61
2023/03/17 02:33:12;;;;;;;1.60;1.20;;;25.70;48.70;;;;;;5073080;28;20690;-62
2023/03/17 02:35:43;;;;;;;2.72;1.35;;;25.70;48.70;;;;;;5072910;28;20219;-60
2023/03/17 02:38:17;;;;;;;1.15;1.05;;;25.70;48.70;;;;;;5073059;28;20687;-62
2023/03/17 02:40:48;;;;;;;2.95;1.30;;;25.70;48.70;;;;;;5072919;28;20199;-61
2023/03/17 02:43:19;;;;;;;1.20;1.10;;;25.80;48.70;;;;;;5072701;28;20199;-60
2023/03/17 02:45:50;;;;;;;2.38;1.20;;;25.80;48.70;;;;;;5072750;28;20226;-63
2023/03/17 02:48:21;;;;;;;1.38;1.13;;;25.80;48.70;;;;;;5073330;28;20202;-62
2023/03/17 02:50:52;;;;;;;1.60;1.13;;;25.80;48.70;;;;;;5073753;28;20251;-62
2023/03/17 02:53:24;;;;;;;1.50;1.13;;;25.80;48.80;;;;;;5073539;28;20666;-61
2023/03/17 02:55:55;;;;;;;1.45;1.20;;;25.90;48.80;;;;;;5073241;28;20211;-60
2023/03/17 02:58:26;;;;;;;1.73;1.10;;;25.90;48.80;;;;;;5073284;28;20191;-63
2023/03/17 03:00:57;;;;;;;1.30;1.20;;;25.90;48.80;;;;;;5072951;28;20191;-63
2023/03/17 03:03:27;;;;;;;1.83;1.27;;;25.90;48.80;;;;;;5072626;28;20230;-63
2023/03/17 03:06:00;;;;;;;2.03;1.38;;;26.00;48.90;;;;;;5072977;28;20215;-62
2023/03/17 03:08:34;;;;;;;1.35;1.25;;;25.90;48.70;;;;;;5073205;28;20249;-61
2023/03/17 03:11:05;;;;;;;2.30;1.20;;;26.00;48.80;;;;;;5072465;28;20201;-61
2023/03/17 03:13:36;;;;;;;1.15;1.05;;;26.00;48.80;;;;;;5073124;28;20198;-62
2023/03/17 03:16:08;;;;;;;1.38;1.10;;;26.00;48.80;;;;;;5072676;28;20215;-62
2023/03/17 03:18:38;;;;;;;1.20;1.10;;;26.00;48.70;;;;;;5072343;28;20194;-61
2023/03/17 03:21:10;;;;;;;1.88;1.20;;;26.00;48.60;;;;;;5072767;28;20560;-62
2023/03/17 03:23:43;;;;;;;1.15;1.05;;;26.10;48.50;;;;;;5072267;28;20199;-60
2023/03/17 03:26:14;;;;;;;2.55;1.10;;;26.10;48.50;;;;;;5072098;28;20227;-61
2023/03/17 03:28:45;;;;;;;1.20;1.10;;;26.10;48.40;;;;;;5072572;28;20199;-61
2023/03/17 03:31:15;;;;;;;2.03;1.10;;;26.20;48.40;;;;;;5072456;28;20562;-60
2023/03/17 03:33:46;;;;;;;1.05;0.95;;;26.20;48.40;;;;;;5072324;28;20650;-62
2023/03/17 03:36:17;;;;;;;1.73;1.20;;;26.20;48.40;;;;;;5072132;28;20215;-61
2023/03/17 03:38:49;;;;;;;1.13;1.02;;;26.20;48.30;;;;;;5072246;28;20769;-62
2023/03/17 03:41:20;;;;;;;1.33;1.05;;;26.20;48.30;;;;;;5072737;28;20201;-65
2023/03/17 03:43:51;;;;;;;1.20;0.93;;;26.20;48.30;;;;;;5072567;28;20199;-62
2023/03/17 03:46:22;;;;;;;1.33;1.23;;;26.20;48.10;;;;;;5071435;28;20222;-62
2023/03/17 03:48:52;;;;;;;1.23;0.95;;;26.20;48.50;;;;;;5072763;28;20209;-57
2023/03/17 03:51:23;;;;;;;1.20;1.10;;;26.20;47.90;;;;;;5072355;28;20199;-63
2023/03/17 03:53:56;;;;;;;3.58;1.05;;;26.20;47.90;;;;;;5072580;28;20202;-64
2023/03/17 03:56:27;;;;;;;3.53;1.02;;;26.20;48.10;;;;;;5071143;28;20222;-64
2023/03/17 03:58:57;;;;;;;1.92;0.90;;;26.20;48.30;;;;;;5071327;28;20229;-66
2023/03/17 04:01:28;;;;;;;1.77;1.10;;;26.20;48.90;;;;;;5072208;28;20198;-65
2023/03/17 04:03:59;;;;;;;1.80;0.95;;;26.20;48.40;;;;;;5072435;28;20203;-62
2023/03/17 04:06:30;;;;;;;1.83;0.80;;;26.20;48.50;;;;;;5072052;28;20227;-62
2023/03/17 04:09:03;;;;;;;1.95;0.98;;;26.20;48.60;;;;;;5071141;28;20191;-66
2023/03/17 04:11:34;;;;;;;3.03;1.30;;;26.20;48.70;;;;;;5071538;28;20198;-66
2023/03/17 04:14:05;;;;;;;3.00;1.50;;;26.20;48.70;;;;;;5071204;28;20273;-59
2023/03/17 04:16:35;;;;;;;2.15;1.25;;;26.20;48.80;;;;;;5071865;28;20247;-66
2023/03/17 04:19:06;;;;;;;1.95;1.13;;;26.20;48.90;;;;;;5072307;28;20252;-66
2023/03/17 04:21:37;;;;;;;2.70;1.05;;;26.20;49.00;;;;;;5071551;28;20191;-66
2023/03/17 04:24:10;;;;;;;4.30;1.33;;;26.20;49.00;;;;;;5070901;28;20654;-66
2023/03/17 04:26:41;;;;;;;2.63;1.13;;;26.20;49.00;;;;;;5070728;28;20241;-65
2023/03/17 04:29:14;;;;;;;1.58;1.00;;;26.30;49.10;;;;;;5071802;28;20210;-65
2023/03/17 04:31:45;;;;;;;1.90;0.98;;;26.30;49.20;;;;;;5071271;28;20573;-61
2023/03/17 04:34:19;;;;;;;4.15;1.10;;;26.30;49.20;;;;;;5071315;28;20664;-65
2023/03/17 04:36:50;;;;;;;2.30;1.00;;;26.20;49.20;;;;;;5071584;28;20234;-65
2023/03/17 04:39:23;;;;;;;1.45;1.00;;;26.20;49.20;;;;;;5071526;28;20195;-64
2023/03/17 04:41:53;;;;;;;2.30;1.05;;;26.30;49.30;;;;;;5071166;28;20667;-64
2023/03/17 04:44:24;;;;;;;11.57;3.03;;;26.30;49.30;;;;;;5071011;28;20199;-64
2023/03/17 04:46:55;;;;;;;19.92;4.90;;;26.30;49.30;;;;;;5069198;28;20746;-64
2023/03/17 04:49:26;;;;;;;9.75;3.75;;;26.30;49.40;;;;;;5071060;28;20225;-64
2023/03/17 04:51:57;;;;;;;7.97;3.30;;;26.30;49.40;;;;;;5070883;28;20197;-64
2023/03/17 04:54:30;;;;;;;11.85;4.13;;;26.30;49.50;;;;;;5070305;28;20198;-64
2023/03/17 04:57:00;;;;;;;5.53;2.67;;;26.30;49.50;;;;;;5068234;28;20219;-65
2023/03/17 04:59:31;;;;;;;6.53;2.60;;;26.30;49.60;;;;;;5070352;28;20198;-62
2023/03/17 05:02:02;;;;;;;5.75;2.38;;;26.30;49.60;;;;;;5070486;28;20190;-62
2023/03/17 05:04:32;;;;;;;7.72;2.40;;;26.30;49.60;;;;;;5070720;28;20264;-61
2023/03/17 05:07:03;;;;;;;11.38;2.40;;;26.40;49.70;;;;;;5070910;28;20226;-60
2023/03/17 05:09:36;;;;;;;5.47;2.00;;;26.30;49.70;;;;;;5071360;28;20725;-62
2023/03/17 05:12:07;;;;;;;6.35;1.98;;;26.30;49.80;;;;;;5071309;28;20187;-62
2023/03/17 05:14:38;;;;;;;4.95;1.50;;;26.30;49.90;;;;;;5071203;28;20194;-64
2023/03/17 05:17:09;;;;;;;5.68;1.73;;;26.40;50.00;;;;;;5070809;28;20221;-64
2023/03/17 05:19:40;;;;;;;4.35;1.55;;;26.30;49.90;;;;;;5070245;28;20199;-65
2023/03/17 05:22:10;;;;;;;4.50;1.40;;;26.30;49.90;;;;;;5070280;28;20218;-62
2023/03/17 05:24:43;;;;;;;3.00;1.42;;;26.30;50.00;;;;;;5070087;28;20195;-61
2023/03/17 05:27:14;;;;;;;4.00;1.45;;;26.30;50.00;;;;;;5070737;28;20254;-63
2023/03/17 05:29:44;;;;;;;3.28;1.40;;;26.30;49.90;;;;;;5070790;28;20694;-62
2023/03/17 05:32:15;;;;;;;4.22;1.40;;;26.30;49.90;;;;;;5071340;28;20643;-60
2023/03/17 05:34:46;;;;;;;4.00;1.27;;;26.30;50.00;;;;;;5071126;28;20191;-62
2023/03/17 05:37:17;;;;;;;1.98;1.10;;;26.30;50.00;;;;;;5071589;28;20211;-60
2023/03/17 05:39:49;;;;;;;5.40;1.33;;;26.30;50.00;;;;;;5070344;28;20202;-61
2023/03/17 05:42:20;;;;;;;2.28;1.30;;;26.30;50.00;;;;;;5070640;28;20212;-61
2023/03/17 05:44:51;;;;;;;2.55;1.17;;;26.30;50.00;;;;;;5070565;28;20198;-61
2023/03/17 05:47:21;;;;;;;3.97;1.40;;;26.30;50.00;;;;;;5069964;28;20222;-62
2023/03/17 05:49:52;;;;;;;2.90;1.23;;;26.20;49.90;;;;;;5070686;28;20199;-62
2023/03/17 05:52:23;;;;;;;2.33;1.33;;;26.30;50.00;;;;;;5070562;28;20190;-60
2023/03/17 05:54:56;;;;;;;2.67;1.02;;;26.30;50.00;;;;;;5070489;28;20202;-62
2023/03/17 05:57:27;;;;;;;2.85;1.17;;;26.20;49.90;;;;;;5071059;28;20881;-63
2023/03/17 05:59:57;;;;;;;1.77;1.10;;;26.20;49.90;;;;;;5074020;28;21660;-62
2023/03/17 06:02:28;;;;;;;1.85;1.00;;;26.20;49.90;;;;;;5074678;28;20647;-61
2023/03/17 06:04:59;;;;;;;1.38;0.90;;;26.20;49.90;;;;;;5074713;28;20234;-62
2023/03/17 06:07:29;;;;;;;1.90;0.90;;;26.20;49.90;;;;;;5074351;28;20229;-60
2023/03/17 06:10:02;;;;;;;2.42;0.98;;;26.20;49.90;;;;;;5074457;28;20615;-62
2023/03/17 06:12:33;;;;;;;1.83;1.00;;;26.20;49.90;;;;;;5074649;28;20213;-62
2023/03/17 06:15:04;;;;;;;1.50;1.05;;;26.20;49.90;;;;;;5072548;28;20187;-62
2023/03/17 06:17:35;;;;;;;1.70;0.90;;;26.20;49.90;;;;;;5074488;28;20244;-60
2023/03/17 06:20:05;;;;;;;2.08;1.10;;;26.20;49.90;;;;;;5092471;28;20209;-61
2023/03/17 06:22:36;;;;;;;1.27;0.73;;;26.20;50.00;;;;;;5095039;28;20202;-62
2023/03/17 06:25:09;;;;;;;1.70;0.98;;;26.20;49.90;;;;;;5094654;28;20205;-62
2023/03/17 06:27:41;;;;;;;1.30;0.85;;;26.10;49.90;;;;;;5078140;28;20230;-60
2023/03/17 06:30:13;;;;;;;2.30;0.90;;;26.10;49.90;;;;;;5074189;28;20272;-61
2023/03/17 06:32:43;;;;;;;1.42;0.80;;;26.10;49.90;;;;;;5074750;28;20195;-61
2023/03/17 06:35:14;;;;;;;2.03;0.88;;;26.10;50.00;;;;;;5073732;28;20568;-62
2023/03/17 06:37:45;;;;;;;1.75;1.00;;;26.10;50.00;;;;;;5073260;28;20209;-62
2023/03/17 06:40:18;;;;;;;1.83;0.90;;;26.00;49.90;;;;;;5073468;28;20568;-62
2023/03/17 06:42:48;;;;;;;2.05;0.90;;;26.00;49.90;;;;;;5074216;28;20200;-62
2023/03/17 06:45:19;;;;;;;1.17;0.80;;;26.00;49.90;;;;;;5073939;28;20195;-63
2023/03/17 06:47:50;;;;;;;1.42;0.70;;;26.00;49.90;;;;;;5073350;28;20229;-62
2023/03/17 06:50:21;;;;;;;1.80;0.70;;;26.00;49.90;;;;;;5073911;28;20275;-60
2023/03/17 06:52:51;;;;;;;2.13;0.90;;;26.00;50.00;;;;;;5054144;28;20202;-62
2023/03/17 06:55:24;;;;;;;0.93;0.70;;;25.90;49.90;;;;;;5053756;28;20200;-63
2023/03/17 06:57:55;;;;;;;1.42;0.68;;;25.90;49.90;;;;;;5071995;28;20206;-62
2023/03/17 07:00:26;;;;;;;1.10;0.70;;;25.90;49.90;;;;;;5073148;28;20199;-61
2023/03/17 07:02:57;;;;;;;1.25;0.60;;;25.90;49.90;;;;;;5073559;28;20252;-61
2023/03/17 07:05:28;;;;;;;1.70;0.98;;;25.90;49.90;;;;;;5073414;28;20207;-63
2023/03/17 07:08:02;;;;;;;1.42;0.80;;;25.90;49.90;;;;;;5073297;28;20222;-62
2023/03/17 07:10:35;;;;;;;2.03;0.80;;;25.90;49.90;;;;;;5072182;28;20285;-62
2023/03/17 07:13:07;;;;;;;1.35;0.90;;;25.90;49.90;;;;;;5073163;28;20726;-62
2023/03/17 07:15:38;;;;;;;1.17;0.70;;;25.90;49.90;;;;;;5073484;28;20219;-62
2023/03/17 07:18:08;;;;;;;1.75;0.90;;;25.90;49.90;;;;;;5073245;28;20320;-62
2023/03/17 07:20:39;;;;;;;1.17;0.60;;;25.80;49.90;;;;;;5073576;28;20202;-62
2023/03/17 07:23:11;;;;;;;1.15;0.90;;;25.80;49.90;;;;;;5073112;28;20198;-62
2023/03/17 07:25:45;;;;;;;0.95;0.60;;;25.80;50.00;;;;;;5073218;28;20851;-62
2023/03/17 07:28:17;;;;;;;1.02;0.63;;;25.80;50.00;;;;;;5073391;28;20600;-62
2023/03/17 07:30:49;;;;;;;1.00;0.60;;;25.80;50.00;;;;;;5072976;28;20210;-60
2023/03/17 07:33:21;;;;;;;0.98;0.70;;;25.70;49.90;;;;;;5072410;28;20238;-63
2023/03/17 07:35:52;;;;;;;2.95;0.70;;;25.80;50.00;;;;;;5073039;28;20214;-63
2023/03/17 07:38:23;;;;;;;1.38;0.70;;;25.70;49.90;;;;;;5072861;28;20206;-62
2023/03/17 07:40:56;;;;;;;0.93;0.70;;;25.70;49.90;;;;;;5072956;28;20191;-60
2023/03/17 07:43:27;;;;;;;0.90;0.57;;;25.70;50.10;;;;;;5064072;28;20227;-62
2023/03/17 07:45:57;;;;;;;0.98;0.60;;;25.70;50.10;;;;;;5071886;28;20211;-63
2023/03/17 07:48:29;;;;;;;0.70;0.57;;;25.70;50.00;;;;;;5072188;28;20218;-63
2023/03/17 07:50:59;;;;;;;1.05;0.50;;;25.70;50.00;;;;;;5072286;28;20200;-62
2023/03/17 07:53:30;;;;;;;1.33;0.60;;;25.70;50.10;;;;;;5081935;28;20186;-62
2023/03/17 07:56:02;;;;;;;0.73;0.50;;;25.60;50.10;;;;;;5076343;28;20621;-62
2023/03/17 07:58:33;;;;;;;1.20;0.60;;;25.60;50.00;;;;;;5072156;28;20198;-63
2023/03/17 08:01:04;;;;;;;1.00;0.68;;;25.60;50.00;;;;;;5072168;28;20195;-62
2023/03/17 08:03:35;;;;;;;1.60;0.60;;;25.60;50.10;;;;;;5072159;28;20191;-62
2023/03/17 08:06:07;;;;;;;0.55;0.47;;;25.60;50.00;;;;;;5071786;28;20214;-62
2023/03/17 08:08:38;;;;;;;1.23;0.50;;;25.60;50.10;;;;;;5071497;28;20233;-64
2023/03/17 08:11:11;;;;;;;1.10;0.60;;;25.60;50.10;;;;;;5071443;28;20198;-63
2023/03/17 08:13:41;;;;;;;0.93;0.70;;;25.60;50.20;;;;;;5072046;28;20244;-63
2023/03/17 08:16:12;;;;;;;0.93;0.57;;;25.50;50.10;;;;;;5071841;28;20219;-63
2023/03/17 08:18:43;;;;;;;1.17;0.70;;;25.50;50.10;;;;;;5071545;28;20206;-63
2023/03/17 08:21:13;;;;;;;1.00;0.52;;;25.50;50.20;;;;;;5071199;28;20670;-62
2023/03/17 08:23:44;;;;;;;0.55;0.40;;;25.50;50.10;;;;;;5070301;28;20195;-63
2023/03/17 08:26:17;;;;;;;1.05;0.50;;;25.50;50.10;;;;;;5071143;28;20215;-62
2023/03/17 08:28:49;;;;;;;1.33;0.70;;;25.50;50.10;;;;;;5071907;28;20230;-62
2023/03/17 08:31:21;;;;;;;1.52;0.60;;;25.40;50.00;;;;;;5072000;28;20289;-63
2023/03/17 08:33:55;;;;;;;0.82;0.70;;;25.40;50.00;;;;;;5071463;28;20201;-63
2023/03/17 08:36:26;;;;;;;0.80;0.68;;;25.40;50.00;;;;;;5071672;28;20224;-63
2023/03/17 08:38:57;;;;;;;0.98;0.60;;;25.40;50.00;;;;;;5071716;28;20230;-62
2023/03/17 08:41:30;;;;;;;1.17;0.52;;;25.40;50.00;;;;;;5071432;28;20206;-63
2023/03/17 08:44:01;;;;;;;0.80;0.60;;;25.30;50.00;;;;;;5070985;28;20218;-62
2023/03/17 08:46:33;;;;;;;0.60;0.60;;;25.30;50.00;;;;;;5071266;28;20275;-63
2023/03/17 08:49:04;;;;;;;0.82;0.60;;;25.30;50.00;;;;;;5071077;28;20229;-63
2023/03/17 08:51:37;;;;;;;0.85;0.60;;;25.30;50.10;;;;;;5070967;28;20195;-64
2023/03/17 08:54:08;;;;;;;0.65;0.50;;;25.30;50.10;;;;;;5070600;28;20651;-63
2023/03/17 08:56:42;;;;;;;0.90;0.50;;;25.30;50.10;;;;;;5070352;28;20234;-63
2023/03/17 08:59:13;;;;;;;0.50;0.43;;;25.30;50.10;;;;;;5070952;28;20231;-62
2023/03/17 09:01:44;;;;;;;0.57;0.43;;;25.30;50.10;;;;;;5071119;28;20199;-61
2023/03/17 09:04:15;;;;;;;0.65;0.60;;;25.30;50.20;;;;;;5070967;28;20203;-63
2023/03/17 09:06:46;;;;;;;0.47;0.40;;;25.20;50.10;;;;;;5070593;28;20215;-63
2023/03/17 09:09:17;;;;;;;0.82;0.50;;;25.20;50.10;;;;;;5070132;28;20658;-63
2023/03/17 09:11:49;;;;;;;0.65;0.47;;;25.20;50.10;;;;;;5070410;28;20209;-64
2023/03/17 09:14:20;;;;;;;4.72;1.60;;;25.20;50.10;;;;;;5070403;28;20197;-62
2023/03/17 09:16:51;;;;;;;2.78;0.80;;;25.20;50.60;;;;;;5069789;28;20309;-63
2023/03/17 09:19:22;;;;;;;3.20;0.95;;;25.20;50.80;;;;;;5071208;28;20191;-64
2023/03/17 09:21:53;;;;;;;2.72;0.82;;;25.20;50.70;;;;;;5071360;28;20604;-61
2023/03/17 09:24:23;;;;;;;1.73;0.75;;;25.20;50.70;;;;;;5070732;28;20205;-60
2023/03/17 09:26:58;;;;;;;2.95;0.70;;;25.20;50.70;;;;;;5070888;28;20732;-62
2023/03/17 09:29:29;;;;;;;2.13;0.80;;;25.20;50.70;;;;;;5070371;28;20194;-63
2023/03/17 09:32:00;;;;;;;4.47;1.10;;;25.20;50.70;;;;;;5070590;28;20191;-63
2023/03/17 09:34:31;;;;;;;1.15;0.82;;;25.20;50.70;;;;;;5070620;28;20202;-60
2023/03/17 09:37:02;;;;;;;2.42;1.13;;;25.10;50.70;;;;;;5070153;28;20211;-60
2023/03/17 09:39:32;;;;;;;2.72;1.00;;;25.10;50.70;;;;;;5064457;28;20193;-62
2023/03/17 09:42:32;;;;;;;2.15;1.10;;;25.10;50.70;;;;;;5070906;28;20199;-62
2023/03/17 09:45:16;;;;;;;3.05;1.17;;;25.10;50.70;;;;;;5070152;28;20191;-64
2023/03/17 09:47:59;;;;;;;4.60;1.70;;;25.10;50.70;;;;;;5070042;28;20218;-60
2023/03/17 09:50:34;;;;;;;3.22;1.55;;;25.10;50.70;;;;;;5051851;28;20196;-63
2023/03/17 09:53:06;;;;;;;3.30;1.75;;;25.10;50.80;;;;;;5069957;28;20256;-63
2023/03/17 09:55:39;;;;;;;5.30;2.10;;;25.10;50.90;;;;;;5080064;28;20602;-63
2023/03/17 09:58:13;;;;;;;3.58;1.85;;;25.00;50.80;;;;;;5070629;28;20202;-61
2023/03/17 10:00:43;;;;;;;2.45;1.42;;;25.00;50.90;;;;;;5070538;28;20210;-62
2023/03/17 10:03:14;;;;;;;3.65;1.83;;;25.00;50.90;;;;;;5070539;28;20206;-62
2023/03/17 10:05:45;;;;;;;4.85;2.08;;;25.00;50.90;;;;;;5070171;28;20222;-63
2023/03/17 10:08:21;;;;;;;4.55;2.38;;;24.90;50.90;;;;;;5070438;28;20254;-63
2023/03/17 10:10:56;;;;;;;6.78;2.55;;;24.90;51.00;;;;;;5070601;28;20190;-62
2023/03/17 10:13:40;;;;;;;4.63;2.15;;;24.90;51.00;;;;;;5069706;28;20569;-63
2023/03/17 10:16:13;;;;;;;5.45;2.33;;;24.90;51.10;;;;;;5050143;28;20305;-63
2023/03/17 10:18:49;;;;;;;5.45;2.70;;;24.90;51.10;;;;;;5054774;28;20241;-63
2023/03/17 10:21:24;;;;;;;4.50;2.40;;;24.90;51.10;;;;;;5070698;28;20224;-62
2023/03/17 10:23:56;;;;;;;5.45;2.40;;;24.90;51.10;;;;;;5070581;28;20230;-62
2023/03/17 10:26:31;;;;;;;4.75;2.13;;;24.90;51.10;;;;;;5070360;28;20745;-63
2023/03/17 10:29:06;;;;;;;3.92;2.03;;;24.80;51.10;;;;;;5069968;28;20210;-63
2023/03/17 10:31:38;;;;;;;7.32;2.60;;;24.80;51.10;;;;;;5069162;28;20676;-63
2023/03/17 10:34:16;;;;;;;4.05;2.05;;;24.80;51.10;;;;;;5070107;28;20198;-63
2023/03/17 10:36:48;;;;;;;3.58;2.17;;;24.80;51.20;;;;;;5070210;28;20214;-63
2023/03/17 10:39:21;;;;;;;4.85;2.30;;;24.80;51.20;;;;;;5069908;28;20202;-63
2023/03/17 10:41:58;;;;;;;4.82;2.15;;;24.70;51.20;;;;;;5070607;28;20678;-63
2023/03/17 10:44:43;;;;;;;4.07;2.10;;;24.70;51.20;;;;;;5071077;28;20194;-63
2023/03/17 10:47:32;;;;;;;4.10;2.10;;;24.70;51.20;;;;;;5074070;28;20226;-63
2023/03/17 10:50:14;;;;;;;4.80;2.38;;;24.70;51.20;;;;;;5073789;28;20651;-63
2023/03/17 10:52:46;;;;;;;4.68;2.05;;;24.70;51.20;;;;;;5073768;28;20202;-63
2023/03/17 10:55:20;;;;;;;4.20;2.10;;;24.60;51.10;;;;;;5073414;28;20210;-61
2023/03/17 10:57:54;;;;;;;4.45;1.80;;;24.60;51.10;;;;;;5073586;28;20256;-63
2023/03/17 11:00:27;;;;;;;3.35;2.08;;;24.60;51.10;;;;;;5073381;28;20550;-63
2023/03/17 11:03:00;;;;;;;5.00;2.35;;;24.60;51.10;;;;;;5073725;28;20191;-63
2023/03/17 11:05:31;;;;;;;3.10;1.85;;;24.60;51.10;;;;;;5073553;28;20561;-62
2023/03/17 11:08:11;;;;;;;4.88;1.90;;;24.60;51.10;;;;;;5073351;28;20889;-62
2023/03/17 11:10:43;;;;;;;4.50;2.17;;;24.50;51.10;;;;;;5073267;28;20222;-62
2023/03/17 11:13:18;;;;;;;3.63;2.10;;;24.50;51.10;;;;;;5073299;28;20195;-62
2023/03/17 11:15:55;;;;;;;4.43;2.13;;;24.50;51.10;;;;;;5074791;28;20594;-63
2023/03/17 11:18:29;;;;;;;3.67;1.90;;;24.50;51.10;;;;;;5073140;28;20285;-63
2023/03/17 11:21:03;;;;;;;4.90;2.17;;;24.50;51.20;;;;;;5073072;28;20194;-62
2023/03/17 11:23:53;;;;;;;3.60;1.92;;;24.40;51.20;;;;;;5073080;28;20190;-60
2023/03/17 11:26:40;;;;;;;3.42;2.05;;;24.40;51.20;;;;;;5072952;28;20232;-62
2023/03/17 11:29:40;;;;;;;3.72;2.00;;;24.40;51.10;;;;;;5071613;28;20705;-61
2023/03/17 11:32:29;;;;;;;3.50;1.52;;;24.30;51.10;;;;;;5069886;28;20191;-61
2023/03/17 11:35:20;;;;;;;4.53;2.00;;;24.30;51.10;;;;;;5071368;28;20187;-59
2023/03/17 11:38:05;;;;;;;3.78;2.08;;;24.30;51.10;;;;;;5072413;28;20183;-61
2023/03/17 11:40:37;;;;;;;3.88;1.50;;;24.30;51.10;;;;;;5069847;28;20194;-60
2023/03/17 11:43:23;;;;;;;4.50;1.70;;;24.30;51.10;;;;;;5071708;28;20191;-60
2023/03/17 11:45:57;;;;;;;5.60;1.92;;;24.30;51.10;;;;;;5069291;28;20206;-61
2023/03/17 11:48:40;;;;;;;4.18;1.85;;;24.30;51.20;;;;;;5071900;28;20222;-59
2023/03/17 11:51:21;;;;;;;3.80;1.77;;;24.20;51.10;;;;;;5070924;28;20673;-60
2023/03/17 11:54:12;;;;;;;4.68;2.15;;;24.20;51.20;;;;;;5071687;28;20198;-60
2023/03/17 11:56:47;;;;;;;2.83;1.33;;;24.20;51.20;;;;;;5070506;28;20210;-62
2023/03/17 11:59:25;;;;;;;3.72;1.77;;;24.20;51.20;;;;;;5071573;28;20218;-59
2023/03/17 12:02:03;;;;;;;3.33;1.63;;;24.10;51.10;;;;;;5069922;28;20190;-64
2023/03/17 12:04:38;;;;;;;2.72;1.48;;;24.10;51.20;;;;;;5068964;28;20222;-59
2023/03/17 12:07:19;;;;;;;2.53;1.50;;;24.10;51.20;;;;;;5071779;28;20218;-62
2023/03/17 12:09:56;;;;;;;5.50;1.92;;;24.00;51.10;;;;;;5068833;28;20312;-59
2023/03/17 12:12:33;;;;;;;2.85;1.60;;;24.00;51.10;;;;;;5071052;28;20186;-60
2023/03/17 12:15:06;;;;;;;3.53;1.70;;;24.00;51.20;;;;;;5070300;28;20677;-59
2023/03/17 12:17:42;;;;;;;2.78;1.40;;;24.00;51.10;;;;;;5070704;28;20199;-60
2023/03/17 12:20:20;;;;;;;3.17;1.17;;;24.00;51.20;;;;;;5068409;28;20195;-60
2023/03/17 12:22:55;;;;;;;4.60;1.70;;;24.00;51.20;;;;;;5068155;28;20190;-61
2023/03/17 12:25:31;;;;;;;2.63;1.67;;;24.00;51.20;;;;;;5070658;28;20310;-61
2023/03/17 12:28:05;;;;;;;4.25;1.90;;;24.00;51.20;;;;;;5070372;28;20263;-60
2023/03/17 12:30:46;;;;;;;3.75;1.52;;;23.90;51.10;;;;;;5068989;28;20191;-61
2023/03/17 12:33:26;;;;;;;2.67;1.50;;;23.90;51.10;;;;;;5069766;28;20194;-61
2023/03/17 12:35:59;;;;;;;3.55;1.92;;;23.90;51.10;;;;;;5069267;28;20210;-60
2023/03/17 12:38:37;;;;;;;2.63;1.23;;;23.90;51.10;;;;;;5068269;28;20207;-61
2023/03/17 12:41:37;;;;;;;3.33;1.42;;;23.80;51.10;;;;;;5070406;28;20202;-60
2023/03/17 12:44:13;;;;;;;3.53;1.48;;;23.80;51.10;;;;;;5067170;28;20195;-59
2023/03/17 12:47:05;;;;;;;2.30;1.30;;;23.80;51.10;;;;;;5069932;28;20214;-62
2023/03/17 12:50:16;;;;;;;2.25;1.25;;;23.80;51.10;;;;;;5068141;28;20218;-60
2023/03/17 12:53:14;;;;;;;3.33;1.60;;;23.70;51.10;;;;;;5070009;28;20198;-62
2023/03/17 12:55:50;;;;;;;2.88;1.40;;;23.70;51.10;;;;;;5069693;28;20207;-61
2023/03/17 12:58:31;;;;;;;3.40;1.33;;;23.70;51.10;;;;;;5070187;28;20187;-62
2023/03/17 13:01:09;;;;;;;3.30;1.55;;;23.70;51.10;;;;;;5070127;28;20274;-61
2023/03/17 13:03:47;;;;;;;2.25;1.20;;;23.70;51.10;;;;;;5069112;28;20195;-62
2023/03/17 13:06:21;;;;;;;2.50;1.35;;;23.70;51.20;;;;;;5071754;28;20218;-60
2023/03/17 13:08:55;;;;;;;2.13;1.17;;;23.70;51.10;;;;;;5070438;28;20256;-62
2023/03/17 13:11:47;;;;;;;2.95;1.38;;;23.60;51.10;;;;;;5071301;28;20209;-62
2023/03/17 13:14:26;;;;;;;2.42;1.20;;;23.60;51.10;;;;;;5071363;28;20651;-61
2023/03/17 13:17:07;;;;;;;3.63;1.38;;;23.60;51.10;;;;;;5070803;28;20214;-60
2023/03/17 13:19:48;;;;;;;3.28;1.40;;;23.60;51.10;;;;;;5071081;28;20195;-63